createdAt,value
2019-04-30T00:00:18.425Z,11.90
2019-04-30T00:03:01.837Z,11.90
2019-04-30T00:05:35.327Z,11.90
2019-04-30T00:08:11.941Z,11.90
2019-04-30T00:10:45.398Z,11.80
2019-04-30T00:13:20.723Z,11.90
2019-04-30T00:15:52.883Z,11.80
2019-04-30T00:18:20.407Z,11.70
2019-04-30T00:20:50.873Z,11.80
2019-04-30T00:23:22.604Z,11.70
2019-04-30T00:25:57.616Z,11.70
2019-04-30T00:28:25.620Z,11.70
2019-04-30T00:30:56.322Z,11.70
2019-04-30T00:33:35.326Z,11.70
2019-04-30T00:36:06.639Z,11.70
2019-04-30T00:38:37.957Z,11.70
2019-04-30T00:41:10.243Z,11.60
2019-04-30T00:43:46.459Z,11.50
2019-04-30T00:46:17.300Z,11.60
2019-04-30T00:48:45.586Z,11.60
2019-04-30T00:51:21.093Z,11.60
2019-04-30T00:53:51.316Z,11.50
2019-04-30T00:56:24.812Z,11.50
2019-04-30T00:58:57.941Z,11.50
2019-04-30T01:02:00.442Z,11.50
2019-04-30T01:04:45.014Z,11.50
2019-04-30T01:07:17.458Z,11.40
2019-04-30T01:09:49.868Z,11.50
2019-04-30T01:12:27.667Z,11.50
2019-04-30T01:14:52.572Z,11.50
2019-04-30T01:17:22.956Z,11.60
2019-04-30T01:19:56.523Z,11.50
2019-04-30T01:22:29.214Z,11.60
2019-04-30T01:25:01.330Z,11.60
2019-04-30T01:27:32.441Z,11.60
2019-04-30T01:30:03.926Z,11.50
2019-04-30T01:32:34.647Z,11.40
2019-04-30T01:35:06.435Z,11.30
2019-04-30T01:37:39.809Z,11.40
2019-04-30T01:40:14.101Z,11.50
2019-04-30T01:42:48.615Z,11.50
2019-04-30T01:45:23.222Z,11.50
2019-04-30T01:48:08.966Z,11.50
2019-04-30T01:50:38.711Z,11.50
2019-04-30T01:53:13.056Z,11.40
2019-04-30T01:56:03.559Z,11.40
2019-04-30T01:58:49.494Z,11.50
2019-04-30T02:01:22.211Z,11.40
2019-04-30T02:03:52.603Z,11.30
2019-04-30T02:06:23.030Z,11.30
2019-04-30T02:08:55.563Z,11.30
2019-04-30T02:11:35.059Z,11.30
2019-04-30T02:14:09.009Z,11.30
2019-04-30T02:16:39.628Z,11.20
2019-04-30T02:19:10.181Z,11.10
2019-04-30T02:21:44.871Z,11.10
2019-04-30T02:24:15.301Z,11.00
2019-04-30T02:26:48.501Z,11.10
2019-04-30T02:29:22.846Z,11.20
2019-04-30T02:31:53.888Z,11.30
2019-04-30T02:34:34.568Z,11.30
2019-04-30T02:37:12.876Z,11.30
2019-04-30T02:39:43.368Z,11.30
2019-04-30T02:42:14.517Z,11.30
2019-04-30T02:44:45.616Z,11.10
2019-04-30T02:47:20.307Z,11.20
2019-04-30T02:50:10.200Z,11.10
2019-04-30T02:52:36.553Z,11.00
2019-04-30T02:55:10.206Z,11.00
2019-04-30T02:57:40.605Z,11.00
2019-04-30T03:00:23.141Z,11.10
2019-04-30T03:02:53.545Z,11.10
2019-04-30T03:05:24.007Z,11.10
2019-04-30T03:08:03.837Z,11.10
2019-04-30T03:10:34.202Z,11.10
2019-04-30T03:13:04.708Z,11.10
2019-04-30T03:15:35.151Z,11.10
2019-04-30T03:18:20.068Z,11.20
2019-04-30T03:20:59.895Z,11.20
2019-04-30T03:23:29.646Z,11.10
2019-04-30T03:26:12.919Z,11.10
2019-04-30T03:28:55.968Z,11.10
2019-04-30T03:31:26.579Z,11.10
2019-04-30T03:34:01.503Z,11.00
2019-04-30T03:36:35.305Z,11.00
2019-04-30T03:39:11.842Z,11.00
2019-04-30T03:41:42.856Z,11.00
2019-04-30T03:44:21.368Z,11.10
2019-04-30T03:46:45.492Z,11.10
2019-04-30T03:49:26.492Z,11.10
2019-04-30T03:51:59.934Z,11.10
2019-04-30T03:54:29.892Z,11.00
2019-04-30T03:57:14.308Z,11.10
2019-04-30T03:59:44.704Z,11.10
2019-04-30T04:02:30.038Z,11.00
2019-04-30T04:05:31.599Z,11.10
2019-04-30T04:08:21.887Z,11.10
2019-04-30T04:11:12.877Z,11.10
2019-04-30T04:13:43.268Z,11.10
2019-04-30T04:16:14.128Z,11.10
2019-04-30T04:18:44.596Z,11.10
2019-04-30T04:21:16.857Z,11.00
2019-04-30T04:23:54.255Z,11.00
2019-04-30T04:26:24.762Z,11.10
2019-04-30T04:28:55.146Z,11.10
2019-04-30T04:31:26.366Z,11.10
2019-04-30T04:33:59.805Z,11.10
2019-04-30T04:36:30.258Z,11.20
2019-04-30T04:39:04.081Z,11.10
2019-04-30T04:41:39.478Z,11.10
2019-04-30T04:44:12.926Z,11.10
2019-04-30T04:46:41.885Z,11.00
2019-04-30T04:49:12.470Z,11.00
2019-04-30T04:51:42.875Z,11.10
2019-04-30T04:54:13.392Z,11.10
2019-04-30T04:56:46.843Z,11.10
2019-04-30T04:59:17.269Z,11.00
2019-04-30T05:01:51.139Z,11.10
2019-04-30T05:04:21.721Z,11.10
2019-04-30T05:06:53.721Z,11.10
2019-04-30T05:09:25.099Z,11.00
2019-04-30T05:11:55.527Z,11.10
2019-04-30T05:14:28.666Z,11.10
2019-04-30T05:16:58.979Z,11.10
2019-04-30T05:19:32.464Z,11.20
2019-04-30T05:22:15.227Z,11.20
2019-04-30T05:24:45.579Z,11.10
2019-04-30T05:27:16.154Z,11.10
2019-04-30T05:29:46.541Z,11.10
2019-04-30T05:32:19.650Z,11.20
2019-04-30T05:34:50.393Z,11.20
2019-04-30T05:37:22.560Z,11.30
2019-04-30T05:39:53.070Z,11.40
2019-04-30T05:42:30.626Z,11.40
2019-04-30T05:45:09.317Z,11.40
2019-04-30T05:47:40.082Z,11.50
2019-04-30T05:50:11.112Z,11.50
2019-04-30T05:52:44.323Z,11.50
2019-04-30T05:55:14.795Z,11.30
2019-04-30T05:57:53.860Z,11.20
2019-04-30T06:00:19.127Z,11.20
2019-04-30T06:02:50.644Z,11.20
2019-04-30T06:05:22.273Z,11.40
2019-04-30T06:08:19.181Z,11.40
2019-04-30T06:10:55.104Z,11.40
2019-04-30T06:13:32.057Z,11.50
2019-04-30T06:16:05.631Z,11.50
2019-04-30T06:18:38.505Z,11.40
2019-04-30T06:21:10.139Z,11.40
2019-04-30T06:23:40.675Z,11.40
2019-04-30T06:26:13.200Z,11.50
2019-04-30T06:28:43.983Z,11.40
2019-04-30T06:31:14.420Z,11.50
2019-04-30T06:33:45.347Z,11.50
2019-04-30T06:36:19.065Z,11.50
2019-04-30T06:38:49.180Z,11.40
2019-04-30T06:41:19.842Z,11.50
2019-04-30T06:43:52.988Z,11.50
2019-04-30T06:46:23.604Z,11.50
2019-04-30T06:48:54.700Z,11.50
2019-04-30T06:51:26.106Z,11.50
2019-04-30T06:53:56.570Z,11.40
2019-04-30T06:56:28.845Z,11.50
2019-04-30T06:58:59.520Z,11.40
2019-04-30T07:04:01.024Z,11.30
2019-04-30T07:06:36.764Z,11.40
2019-04-30T07:09:39.834Z,11.50
2019-04-30T07:12:22.967Z,11.40
2019-04-30T07:14:45.079Z,11.50
2019-04-30T07:17:15.643Z,11.50
2019-04-30T07:19:55.622Z,11.50
2019-04-30T07:22:20.669Z,11.50
2019-04-30T07:24:50.815Z,11.30
2019-04-30T07:27:24.090Z,11.30
2019-04-30T07:29:53.540Z,11.40
2019-04-30T07:32:23.963Z,11.50
2019-04-30T07:34:54.344Z,11.50
2019-04-30T07:37:25.498Z,11.50
2019-04-30T07:39:56.247Z,11.60
2019-04-30T07:42:26.669Z,11.70
2019-04-30T07:45:00.419Z,11.60
2019-04-30T07:47:30.409Z,11.50
2019-04-30T07:50:00.998Z,11.50
2019-04-30T07:52:34.283Z,11.50
2019-04-30T07:55:04.883Z,11.60
2019-04-30T07:57:35.324Z,11.70
2019-04-30T08:00:06.079Z,11.80
2019-04-30T08:02:43.620Z,11.80
2019-04-30T08:05:21.952Z,11.90
2019-04-30T08:07:52.419Z,11.90
2019-04-30T08:10:22.857Z,11.90
2019-04-30T08:12:53.610Z,11.70
2019-04-30T08:15:24.287Z,11.70
2019-04-30T08:18:03.704Z,11.80
2019-04-30T08:20:27.221Z,11.90
2019-04-30T08:23:03.055Z,11.90
2019-04-30T08:25:29.796Z,11.90
2019-04-30T08:28:00.268Z,11.90
2019-04-30T08:30:31.226Z,11.90
2019-04-30T08:33:01.576Z,11.90
2019-04-30T08:35:32.030Z,12.00
2019-04-30T08:38:02.789Z,12.10
2019-04-30T08:40:33.223Z,12.10
2019-04-30T08:43:03.703Z,12.10
2019-04-30T08:45:34.846Z,12.20
2019-04-30T08:48:05.552Z,12.30
2019-04-30T08:50:39.073Z,12.30
2019-04-30T08:53:10.912Z,12.30
2019-04-30T08:55:41.672Z,12.30
2019-04-30T08:58:15.141Z,12.20
2019-04-30T09:00:44.320Z,12.10
2019-04-30T09:03:14.609Z,12.10
2019-04-30T09:06:16.499Z,12.20
2019-04-30T09:08:49.299Z,12.30
2019-04-30T09:11:25.233Z,12.30
2019-04-30T09:13:51.872Z,12.40
2019-04-30T09:16:22.347Z,12.50
2019-04-30T09:18:54.380Z,12.40
2019-04-30T09:21:24.728Z,12.40
2019-04-30T09:23:55.066Z,12.40
2019-04-30T09:26:26.452Z,12.50
2019-04-30T09:28:56.871Z,12.50
2019-04-30T09:31:29.377Z,12.60
2019-04-30T09:34:00.963Z,12.40
2019-04-30T09:36:31.511Z,12.40
2019-04-30T09:39:01.955Z,12.50
2019-04-30T09:41:33.954Z,12.40
2019-04-30T09:44:04.996Z,12.30
2019-04-30T09:46:35.869Z,12.30
2019-04-30T09:49:06.314Z,12.40
2019-04-30T09:51:39.054Z,12.50
2019-04-30T09:54:11.652Z,12.50
2019-04-30T09:56:41.190Z,12.60
2019-04-30T09:59:11.610Z,12.50
2019-04-30T10:01:42.324Z,12.50
2019-04-30T10:04:13.263Z,12.50
2019-04-30T10:06:44.335Z,12.60
2019-04-30T10:09:15.196Z,12.60
2019-04-30T10:11:54.090Z,12.70
2019-04-30T10:14:24.515Z,12.80
2019-04-30T10:17:04.041Z,12.80
2019-04-30T10:19:34.819Z,12.80
2019-04-30T10:22:05.924Z,12.80
2019-04-30T10:24:36.435Z,12.80
2019-04-30T10:27:12.739Z,12.90
2019-04-30T10:29:41.116Z,12.90
2019-04-30T10:32:12.416Z,12.80
2019-04-30T10:34:50.522Z,12.90
2019-04-30T10:37:22.235Z,13.00
2019-04-30T10:39:52.701Z,13.00
2019-04-30T10:42:23.070Z,13.00
2019-04-30T10:44:53.827Z,13.10
2019-04-30T10:47:24.984Z,13.20
2019-04-30T10:49:55.344Z,13.10
2019-04-30T10:52:26.699Z,13.10
2019-04-30T10:54:57.175Z,13.20
2019-04-30T10:57:28.556Z,13.30
2019-04-30T10:59:59.123Z,13.30
2019-04-30T11:02:31.200Z,13.20
2019-04-30T11:05:01.741Z,13.30
2019-04-30T11:07:32.199Z,13.40
2019-04-30T11:10:03.423Z,13.40
2019-04-30T11:12:34.211Z,13.40
2019-04-30T11:15:05.238Z,13.40
2019-04-30T11:17:36.810Z,13.50
2019-04-30T11:20:10.089Z,13.50
2019-04-30T11:22:40.382Z,13.50
2019-04-30T11:25:11.559Z,13.70
2019-04-30T11:27:42.762Z,13.70
2019-04-30T11:30:21.395Z,13.80
2019-04-30T11:32:47.397Z,13.90
2019-04-30T11:35:18.442Z,14.00
2019-04-30T11:37:50.283Z,13.90
2019-04-30T11:40:34.022Z,13.80
2019-04-30T11:42:59.598Z,13.90
2019-04-30T11:46:18.590Z,13.80
2019-04-30T11:48:49.057Z,13.80
2019-04-30T11:51:19.772Z,13.90
2019-04-30T11:53:51.927Z,13.90
2019-04-30T11:56:22.471Z,13.80
2019-04-30T11:58:52.837Z,13.80
2019-04-30T12:01:25.561Z,14.00
2019-04-30T12:03:55.991Z,13.90
2019-04-30T12:06:26.283Z,14.00
2019-04-30T12:09:09.803Z,13.90
2019-04-30T12:11:42.055Z,13.60
2019-04-30T12:14:12.393Z,13.80
2019-04-30T12:16:43.519Z,13.70
2019-04-30T12:19:14.087Z,13.70
2019-04-30T12:21:44.545Z,13.60
2019-04-30T12:24:15.309Z,13.70
2019-04-30T12:26:45.833Z,13.80
2019-04-30T12:29:16.175Z,13.90
2019-04-30T12:31:46.527Z,13.90
2019-04-30T12:34:17.288Z,13.80
2019-04-30T12:36:49.627Z,13.80
2019-04-30T12:39:19.907Z,13.80
2019-04-30T12:41:50.272Z,13.90
2019-04-30T12:44:20.587Z,13.90
2019-04-30T12:46:51.155Z,13.80
2019-04-30T12:49:21.579Z,13.70
2019-04-30T12:51:58.742Z,13.80
2019-04-30T12:54:51.900Z,13.80
2019-04-30T12:57:39.305Z,13.80
2019-04-30T13:00:12.531Z,13.60
2019-04-30T13:02:43.077Z,13.80
2019-04-30T13:05:13.591Z,13.80
2019-04-30T13:07:44.553Z,13.70
2019-04-30T13:10:16.069Z,13.70
2019-04-30T13:12:47.640Z,13.50
2019-04-30T13:15:19.508Z,13.60
2019-04-30T13:17:50.196Z,13.60
2019-04-30T13:20:23.673Z,13.60
2019-04-30T13:22:52.944Z,13.50
2019-04-30T13:25:32.464Z,13.50
2019-04-30T13:28:00.259Z,13.60
2019-04-30T13:30:31.607Z,13.60
2019-04-30T13:33:20.292Z,13.70
2019-04-30T13:35:49.719Z,13.60
2019-04-30T13:38:25.268Z,13.50
2019-04-30T13:43:58.777Z,13.50
2019-04-30T13:46:29.312Z,13.60
2019-04-30T13:48:59.631Z,13.50
2019-04-30T13:51:30.058Z,13.50
2019-04-30T13:54:01.289Z,13.40
2019-04-30T13:56:32.857Z,13.30
2019-04-30T13:59:03.501Z,13.40
2019-04-30T14:01:33.843Z,13.40
2019-04-30T14:04:22.512Z,13.30
2019-04-30T14:07:13.027Z,13.30
2019-04-30T14:09:43.493Z,13.60
2019-04-30T14:12:13.788Z,13.50
2019-04-30T14:14:44.128Z,13.40
2019-04-30T14:17:14.871Z,13.50
2019-04-30T14:19:45.249Z,13.30
2019-04-30T14:22:15.697Z,13.30
2019-04-30T14:24:46.040Z,13.40
2019-04-30T14:27:16.572Z,13.40
2019-04-30T14:29:46.881Z,13.50
2019-04-30T14:32:18.603Z,13.30
2019-04-30T14:34:50.630Z,13.30
2019-04-30T14:37:21.226Z,13.30
2019-04-30T14:39:52.515Z,13.20
2019-04-30T14:42:23.764Z,13.20
2019-04-30T14:45:04.699Z,13.30
2019-04-30T14:47:52.074Z,13.20
2019-04-30T14:50:23.144Z,13.20
2019-04-30T14:53:12.375Z,13.20
2019-04-30T14:56:11.351Z,13.20
2019-04-30T14:58:55.908Z,13.20
2019-04-30T15:01:35.544Z,13.20
2019-04-30T15:04:06.201Z,13.20
2019-04-30T15:06:36.630Z,13.20
2019-04-30T15:09:07.760Z,13.00
2019-04-30T15:11:38.815Z,13.00
2019-04-30T15:14:09.360Z,13.00
2019-04-30T15:16:39.815Z,13.10
2019-04-30T15:19:10.158Z,13.20
2019-04-30T15:21:40.510Z,13.30
2019-04-30T15:24:36.144Z,13.10
2019-04-30T15:27:06.673Z,13.20
2019-04-30T15:29:39.204Z,13.20
2019-04-30T15:32:09.837Z,13.30
2019-04-30T15:34:42.411Z,13.20
2019-04-30T15:37:19.074Z,13.20
2019-04-30T15:39:46.579Z,13.10
2019-04-30T15:42:18.283Z,13.10
2019-04-30T15:44:49.623Z,13.20
2019-04-30T15:47:21.535Z,13.10
2019-04-30T15:49:51.868Z,13.20
2019-04-30T15:52:22.162Z,13.20
2019-04-30T15:54:52.466Z,13.10
2019-04-30T15:57:22.940Z,12.90
2019-04-30T15:59:54.623Z,13.00
2019-04-30T16:02:30.615Z,13.20
2019-04-30T16:05:12.432Z,13.00
2019-04-30T16:07:54.357Z,13.00
2019-04-30T16:10:42.792Z,13.00
2019-04-30T16:13:19.478Z,13.00
2019-04-30T16:15:49.939Z,13.10
2019-04-30T16:18:22.993Z,13.10
2019-04-30T16:20:54.968Z,13.10
2019-04-30T16:23:26.659Z,13.10
2019-04-30T16:25:56.984Z,13.00
2019-04-30T16:28:32.256Z,13.10
2019-04-30T16:31:03.540Z,13.00
2019-04-30T16:33:34.669Z,13.00
2019-04-30T16:36:05.983Z,13.00
2019-04-30T16:38:39.652Z,13.00
2019-04-30T16:41:11.687Z,12.90
2019-04-30T16:43:44.101Z,12.90
2019-04-30T16:46:15.701Z,12.90
2019-04-30T16:48:49.246Z,13.00
2019-04-30T16:51:23.407Z,12.90
2019-04-30T16:53:54.339Z,13.00
2019-04-30T16:56:28.604Z,12.90
2019-04-30T16:59:00.136Z,12.80
2019-04-30T17:01:34.868Z,12.90
2019-04-30T17:04:31.051Z,12.80
2019-04-30T17:07:12.762Z,12.70
2019-04-30T17:09:52.663Z,12.70
2019-04-30T17:12:32.189Z,12.70
2019-04-30T17:15:19.795Z,12.60
2019-04-30T17:17:51.344Z,12.60
2019-04-30T17:20:24.923Z,12.60
2019-04-30T17:22:59.374Z,12.50
2019-04-30T17:25:30.299Z,12.40
2019-04-30T17:28:01.511Z,12.50
2019-04-30T17:30:33.248Z,12.50
2019-04-30T17:33:04.857Z,12.60
2019-04-30T17:35:35.979Z,12.60
2019-04-30T17:38:07.344Z,12.60
2019-04-30T17:40:39.302Z,12.60
2019-04-30T17:43:11.223Z,12.50
2019-04-30T17:45:42.641Z,12.50
2019-04-30T17:48:15.393Z,12.50
2019-04-30T17:50:45.808Z,12.50
2019-04-30T17:53:19.068Z,12.50
2019-04-30T17:55:50.447Z,12.30
2019-04-30T17:58:21.895Z,12.20
2019-04-30T18:00:55.551Z,12.40
2019-04-30T18:03:28.861Z,12.30
2019-04-30T18:06:02.502Z,12.20
2019-04-30T18:08:34.232Z,12.20
2019-04-30T18:11:08.384Z,12.30
2019-04-30T18:13:41.448Z,12.30
2019-04-30T18:16:11.898Z,12.30
2019-04-30T18:18:54.000Z,12.30
2019-04-30T18:21:35.052Z,12.20
2019-04-30T18:24:33.657Z,12.20
2019-04-30T18:27:21.150Z,12.10
2019-04-30T18:29:51.516Z,12.10
2019-04-30T18:32:23.693Z,12.20
2019-04-30T18:34:59.021Z,12.00
2019-04-30T18:37:29.224Z,11.90
2019-04-30T18:40:00.164Z,12.10
2019-04-30T18:42:30.849Z,12.10
2019-04-30T18:45:01.312Z,12.10
2019-04-30T18:47:32.024Z,12.10
2019-04-30T18:50:02.587Z,12.00
2019-04-30T18:52:34.260Z,12.00
2019-04-30T18:55:05.620Z,11.90
2019-04-30T18:57:36.271Z,11.90
2019-04-30T19:00:09.952Z,12.00
2019-04-30T19:02:40.541Z,11.90
2019-04-30T19:05:17.505Z,11.90
2019-04-30T19:07:56.071Z,12.00
2019-04-30T19:10:38.784Z,11.80
2019-04-30T19:13:33.892Z,12.00
2019-04-30T19:16:41.964Z,11.90
2019-04-30T19:19:17.092Z,11.90
2019-04-30T19:21:48.659Z,11.80
2019-04-30T19:24:19.699Z,11.80
2019-04-30T19:26:50.481Z,11.80
2019-04-30T19:29:22.621Z,11.70
2019-04-30T19:31:53.009Z,11.60
2019-04-30T19:34:23.475Z,11.50
2019-04-30T19:36:54.215Z,11.60
2019-04-30T19:39:24.803Z,11.60
2019-04-30T19:41:55.463Z,11.60
2019-04-30T19:44:25.771Z,11.60
2019-04-30T19:46:56.108Z,11.60
2019-04-30T19:49:26.435Z,11.60
2019-04-30T19:52:06.183Z,11.60
2019-04-30T19:54:29.334Z,11.60
2019-04-30T19:57:01.071Z,11.60
2019-04-30T19:59:31.404Z,11.50
2019-04-30T20:02:01.758Z,11.50
2019-04-30T20:04:34.107Z,11.60
2019-04-30T20:07:04.859Z,11.60
2019-04-30T20:09:35.333Z,11.60
2019-04-30T20:12:05.816Z,11.50
2019-04-30T20:14:36.519Z,11.50
2019-04-30T20:17:08.887Z,11.50
2019-04-30T20:19:39.472Z,11.40
2019-04-30T20:22:09.957Z,11.50
2019-04-30T20:24:43.648Z,11.50
2019-04-30T20:27:18.888Z,11.40
2019-04-30T20:29:51.725Z,11.40
2019-04-30T20:32:33.850Z,11.20
2019-04-30T20:34:53.275Z,11.40
2019-04-30T20:37:23.594Z,11.40
2019-04-30T20:40:10.233Z,11.10
2019-04-30T20:42:41.444Z,11.20
2019-04-30T20:45:11.841Z,11.10
2019-04-30T20:47:42.197Z,11.10
2019-04-30T20:50:12.583Z,11.10
2019-04-30T20:52:42.976Z,11.20
2019-04-30T20:55:13.395Z,11.20
2019-04-30T20:57:43.772Z,11.20
2019-04-30T21:00:14.861Z,11.30
2019-04-30T21:02:45.466Z,11.30
2019-04-30T21:05:15.833Z,11.10
2019-04-30T21:07:46.857Z,11.10
2019-04-30T21:10:17.291Z,11.00
2019-04-30T21:12:49.754Z,11.00
2019-04-30T21:15:19.775Z,11.10
2019-04-30T21:17:50.515Z,11.10
2019-04-30T21:20:21.262Z,11.10
2019-04-30T21:22:51.793Z,11.20
2019-04-30T21:25:22.183Z,11.20
2019-04-30T21:27:52.791Z,11.20
2019-04-30T21:30:23.356Z,11.30
2019-04-30T21:33:10.694Z,11.10
2019-04-30T21:35:48.630Z,11.00
2019-04-30T21:38:20.524Z,11.10
2019-04-30T21:40:50.937Z,11.10
2019-04-30T21:43:21.271Z,11.00
2019-04-30T21:45:51.576Z,11.00
2019-04-30T21:48:21.844Z,11.00
2019-04-30T21:50:52.839Z,11.00
2019-04-30T21:53:23.211Z,11.00
2019-04-30T21:55:53.487Z,11.00
2019-04-30T21:58:23.827Z,11.00
2019-04-30T22:01:22.373Z,11.00
2019-04-30T22:03:52.952Z,11.00
2019-04-30T22:06:23.275Z,11.00
2019-04-30T22:08:54.685Z,11.10
2019-04-30T22:11:25.167Z,11.10
2019-04-30T22:13:55.480Z,11.10
2019-04-30T22:16:25.887Z,10.90
2019-04-30T22:18:56.225Z,11.00
2019-04-30T22:21:28.298Z,11.00
2019-04-30T22:23:58.720Z,10.90
2019-04-30T22:26:29.083Z,10.90
2019-04-30T22:28:59.461Z,10.90
2019-04-30T22:31:29.797Z,10.90
2019-04-30T22:34:00.203Z,10.80
2019-04-30T22:36:46.307Z,10.90
2019-04-30T22:39:29.870Z,10.90
2019-04-30T22:42:39.785Z,11.00
2019-04-30T22:45:26.833Z,11.00
2019-04-30T22:47:58.911Z,11.00
2019-04-30T22:50:29.132Z,11.00
2019-04-30T22:53:00.224Z,10.90
2019-04-30T22:55:30.615Z,10.90
2019-04-30T22:58:00.976Z,10.90
2019-04-30T23:00:56.363Z,11.00
2019-04-30T23:03:31.423Z,11.00
2019-04-30T23:06:01.879Z,11.00
2019-04-30T23:08:32.175Z,11.00
2019-04-30T23:11:03.850Z,11.00
2019-04-30T23:13:34.228Z,11.10
2019-04-30T23:16:05.455Z,11.10
2019-04-30T23:18:35.722Z,11.00
2019-04-30T23:21:06.059Z,11.00
2019-04-30T23:23:36.518Z,11.00
2019-04-30T23:26:06.807Z,10.90
2019-04-30T23:28:37.115Z,11.00
2019-04-30T23:31:07.488Z,10.90
2019-04-30T23:33:38.087Z,11.00
2019-04-30T23:36:08.550Z,11.00
2019-04-30T23:38:38.987Z,10.90
2019-04-30T23:41:09.407Z,10.90
2019-04-30T23:43:39.683Z,10.80
2019-04-30T23:46:10.307Z,10.80
2019-04-30T23:48:40.630Z,10.70
2019-04-30T23:51:10.963Z,10.70
2019-04-30T23:53:41.490Z,10.70
2019-04-30T23:56:12.107Z,10.80
2019-04-30T23:58:42.454Z,10.80
